Flight Track Log - Related Links

Times and Time Zones

All times are in EDT time to prevent confusion due to time zone crossing. See the AAL2359 flight status page for this flight to view local times or setup timezone preferences in your user account.

Time Position Orientation Groundspeed Altitude Reporting Facility
EDT Latitude Longitude Course Direction KTS MPH feet Rate Location/Type
Wed 11:55:27 PM 42.0000 -87.9500 207° Southwest 186 214 2,400  Level Chicago TRACON
Wed 11:57:00 PM 41.7350 -88.1983 201° Southwest  Level Estimated
Wed 11:57:20 PM 41.9433 -88.0489 232° Southwest 257 296 4,900  Level Chicago Center
Wed 11:58:00 PM 41.6526 -88.2951 197° South  Level Estimated
Wed 11:58:21 PM 41.8681 -88.0458 178° South 269 310 5,000  Level Chicago Center
Wed 11:59:00 PM 41.5545 -88.2300 154° Southeast  Level FlightAware Approximate
Wed 11:59:22 PM 41.7928 -88.0400 177° South 271 312 5,000  Level Chicago Center
Thu 12:00:00 AM 41.4727 -88.3274 207° Southwest  Level Estimated
Thu 12:00:23 AM 41.7056 -88.0519 186° South 270 311 6,700  Level Chicago Center
Thu 12:01:24 AM 41.6333 -88.0819 197° South 274 315 9,800 2,607 Climbing Chicago Center
Thu 12:02:25 AM 41.5564 -88.1156 198° South 292 336 12,000 2,293 Climbing Chicago Center
Thu 12:03:27 AM 41.4664 -88.1528 197° South 343 395 14,500 2,537 Climbing Chicago Center
Thu 12:04:28 AM 41.3747 -88.1922 198° South 359 413 17,200 2,803 Climbing Chicago Center
Thu 12:05:29 AM 41.2581 -88.2456 199° South 372 428 20,200 2,459 Climbing Chicago Center
Thu 12:06:30 AM 41.1564 -88.2919 199° South 383 441 22,200 1,869 Climbing Chicago Center
Thu 12:07:31 AM 41.0494 -88.3406 199° South 400 460 24,000 1,820 Climbing Chicago Center
Thu 12:08:32 AM 40.9400 -88.3894 199° South 414 476 25,900 1,869 Climbing Chicago Center
Thu 12:09:33 AM 40.8481 -88.4839 218° Southwest 418 481 27,800 1,820 Climbing Chicago Center
Thu 12:10:34 AM 40.7672 -88.5944 226° Southwest 419 482 29,600 1,623 Climbing Chicago Center
Thu 12:11:35 AM 40.6875 -88.7017 226° Southwest 414 476 31,100 1,033 Climbing Chicago Center
Thu 12:12:36 AM 40.6081 -88.8072 225° Southwest 410 472 31,700 443 Climbing Chicago Center
Thu 12:13:37 AM 40.5186 -88.9267 225° Southwest 408 470 32,000 148 Climbing Chicago Center
Thu 12:14:38 AM 40.4372 -89.0331 225° Southwest 410 472 32,000  Level Chicago Center
Thu 12:15:39 AM 40.3572 -89.1397 225° Southwest 408 470 32,000  Level Chicago Center
Thu 12:16:40 AM 40.2753 -89.2472 225° Southwest 413 475 32,000  Level Chicago Center
Thu 12:17:41 AM 40.1922 -89.3536 224° Southwest 418 481 32,000  Level Chicago Center
Thu 12:18:33 AM 40.1261 -89.4408 225° Southwest 417 480 32,000  Level Kansas City Center
Thu 12:19:35 AM 40.0428 -89.5481 225° Southwest 418 481 32,000  Level Kansas City Center
Thu 12:20:36 AM 39.9597 -89.6558 225° Southwest 419 482 32,000  Level Kansas City Center
Thu 12:21:37 AM 39.8764 -89.7644 225° Southwest 421 484 32,000  Level Kansas City Center
Thu 12:22:38 AM 39.7942 -89.8717 225° Southwest 419 482 32,000 492 Level Kansas City Center
Thu 12:23:39 AM 39.7031 -89.9869 224° Southwest 417 480 33,000 787 Climbing Kansas City Center
Thu 12:24:40 AM 39.6225 -90.0897 225° Southwest 411 473 33,600 492 Climbing Kansas City Center
Thu 12:25:41 AM 39.5428 -90.1928 225° Southwest 408 470 34,000 197 Climbing Kansas City Center
Thu 12:26:42 AM 39.4617 -90.2953 224° Southwest 408 470 34,000  Level Kansas City Center
Thu 12:27:43 AM 39.3819 -90.3981 225° Southwest 407 468 34,000  Level Kansas City Center
Thu 12:28:44 AM 39.2844 -90.5219 225° Southwest 411 473 34,000  Level Kansas City Center
Thu 12:29:46 AM 39.2033 -90.6219 224° Southwest 408 470 34,000  Level Kansas City Center
Thu 12:30:47 AM 39.1211 -90.7264 225° Southwest 408 470 34,000  Level Kansas City Center
Thu 12:31:48 AM 39.0431 -90.8225 224° Southwest 405 466 34,000  Level Kansas City Center
Thu 12:32:49 AM 38.9617 -90.9253 224° Southwest 411 473 34,000  Level Kansas City Center
Thu 12:33:50 AM 38.8814 -91.0239 224° Southwest 407 468 34,000  Level Kansas City Center
Thu 12:34:51 AM 38.8017 -91.1228 224° Southwest 405 466 34,000  Level Kansas City Center
Thu 12:35:52 AM 38.7200 -91.2244 224° Southwest 410 472 34,000  Level Kansas City Center
Thu 12:36:53 AM 38.6389 -91.3242 224° Southwest 409 471 34,000  Level Kansas City Center
Thu 12:37:54 AM 38.5492 -91.4333 224° Southwest 408 470 34,000  Level Kansas City Center
Thu 12:38:54 AM 38.4661 -91.5336 223° Southwest 409 471 34,000  Level Kansas City Center
Thu 12:39:55 AM 38.3828 -91.6344 224° Southwest 410 472 34,000  Level Kansas City Center
Thu 12:40:56 AM 38.3000 -91.7350 224° Southwest 409 471 34,000  Level Kansas City Center
Thu 12:41:57 AM 38.2167 -91.8353 223° Southwest 410 472 34,000  Level Kansas City Center
Thu 12:42:58 AM 38.1339 -91.9350 223° Southwest 408 470 34,000  Level Kansas City Center
Thu 12:43:59 AM 38.0508 -92.0353 224° Southwest 408 470 34,000  Level Kansas City Center
Thu 12:45:00 AM 37.9631 -92.1419 224° Southwest 413 475 34,000  Level Kansas City Center
Thu 12:46:01 AM 37.8797 -92.2403 223° Southwest 412 474 34,000  Level Kansas City Center
Thu 12:47:02 AM 37.7947 -92.3428 224° Southwest 419 482 34,000  Level Kansas City Center
Thu 12:48:03 AM 37.7100 -92.4417 223° Southwest 417 480 34,000  Level Kansas City Center
Thu 12:49:03 AM 37.6228 -92.5458 223° Southwest 416 479 34,000  Level Kansas City Center
Thu 12:50:04 AM 37.5389 -92.6453 223° Southwest 414 476 34,000  Level Kansas City Center
Thu 12:51:05 AM 37.4547 -92.7442 223° Southwest 413 475 34,000  Level Kansas City Center
Thu 12:52:06 AM 37.3694 -92.8378 221° Southwest 406 467 34,000  Level Kansas City Center
Thu 12:53:07 AM 37.2644 -92.9503 220° Southwest 412 474 34,000  Level Kansas City Center
Thu 12:54:08 AM 37.1644 -93.0289 212° Southwest 420 483 34,000  Level Kansas City Center
Thu 12:55:08 AM 37.0653 -93.1072 212° Southwest 421 484 34,000  Level Kansas City Center
Thu 12:56:09 AM 36.9675 -93.1844 212° Southwest 417 480 34,000  Level Kansas City Center
Thu 12:57:10 AM 36.8692 -93.2617 212° Southwest 417 480 34,000  Level Kansas City Center
Thu 12:58:11 AM 36.7703 -93.3356 211° Southwest 419 482 34,000  Level Kansas City Center
Thu 12:59:11 AM 36.6747 -93.4122 213° Southwest 417 480 34,000  Level Kansas City Center
Thu 01:00:12 AM 36.5767 -93.4897 212° Southwest 418 481 34,000  Level Kansas City Center
Thu 01:01:13 AM 36.4789 -93.5647 212° Southwest 416 479 34,000  Level Kansas City Center
Thu 01:02:20 AM 36.3611 -93.6581 213° Southwest 425 489 34,000  Level Memphis Center
Thu 01:03:20 AM 36.2653 -93.7342 213° Southwest 420 483 34,000  Level Memphis Center
Thu 01:04:20 AM 36.1631 -93.8094 211° Southwest 420 483 34,000  Level Memphis Center
Thu 01:05:20 AM 36.0650 -93.8850 212° Southwest 420 483 34,000  Level Memphis Center
Thu 01:06:20 AM 35.9669 -93.9603 212° Southwest 420 483 34,000  Level Memphis Center
Thu 01:07:20 AM 35.8689 -94.0356 212° Southwest 420 483 34,000  Level Memphis Center
Thu 01:08:20 AM 35.7706 -94.1131 213° Southwest 420 483 34,000  Level Memphis Center
Thu 01:09:20 AM 35.6725 -94.1878 212° Southwest 420 483 34,000  Level Memphis Center
Thu 01:10:20 AM 35.5742 -94.2622 212° Southwest 420 483 34,000 -958 Level Memphis Center
Thu 01:12:00 AM 35.4169 -94.3621 211° Southwest  Level FlightAware Approximate
Thu 01:19:00 AM 34.8155 -94.8846 219° Southwest  Level FlightAware Approximate
Thu 01:20:00 AM 34.7336 -94.9666 219° Southwest  Level FlightAware Approximate
Thu 01:21:00 AM 34.6517 -95.0485 219° Southwest  Level FlightAware Approximate
Thu 01:22:00 AM 34.5697 -95.1303 220° Southwest  Level FlightAware Approximate
Thu 01:23:00 AM 34.4878 -95.2122 220° Southwest  Level FlightAware Approximate
Thu 01:24:00 AM 34.4087 -95.2978 223° Southwest  Level FlightAware Approximate
Thu 01:25:00 AM 34.3305 -95.3846 223° Southwest  Level FlightAware Approximate
Thu 01:26:00 AM 34.2500 -95.4676 270° West  Level FlightAware Approximate
Thu 01:27:00 AM 34.1803 -95.5579 222° Southwest  Level FlightAware Approximate
Thu 01:28:00 AM 34.1008 -95.6428 221° Southwest  Level FlightAware Approximate
Thu 01:29:00 AM 34.0212 -95.7274 221° Southwest  Level FlightAware Approximate
Thu 01:30:00 AM 33.9401 -95.8099 220° Southwest  Level FlightAware Approximate
Thu 01:31:00 AM 33.8586 -95.8916 220° Southwest  Level FlightAware Approximate
Thu 01:32:00 AM 33.7771 -95.9733 220° Southwest  Level FlightAware Approximate
Thu 01:33:00 AM 33.6955 -96.0548 220° Southwest  Level FlightAware Approximate
Thu 01:33:21 AM 33.6500 -96.3000 220° Southwest 341 392 11,000  Level Dallas / Fort Worth TRACON
Thu 01:33:51 AM 33.6167 -96.3500 231° Southwest 340 391 11,000  Level Dallas / Fort Worth TRACON
Thu 01:34:00 AM 33.6139 -96.1362 220° Southwest  Level FlightAware Approximate
Thu 01:34:51 AM 33.5500 -96.4167 220° Southwest 338 389 11,000  Level Dallas / Fort Worth TRACON
Thu 01:35:00 AM 33.5390 -96.2262 226° Southwest  Level FlightAware Approximate
Thu 01:35:45 AM 33.5000 -96.5000 234° Southwest 338 389 11,000  Level Dallas / Fort Worth TRACON
Thu 01:36:00 AM 33.4582 -96.3085 220° Southwest  Level FlightAware Approximate
Thu 01:36:45 AM 33.4333 -96.5833 226° Southwest 335 386 11,000  Level Dallas / Fort Worth TRACON
Thu 01:37:00 AM 33.3789 -96.3921 239° Southwest  Level FlightAware Approximate
Thu 01:37:45 AM 33.3667 -96.6500 220° Southwest 291 335 10,400  Level Dallas / Fort Worth TRACON
Thu 01:38:00 AM 33.3118 -96.4882 220° Southwest  Level FlightAware Approximate
Thu 01:38:45 AM 33.3167 -96.7167 228° Southwest 279 321 8,700  Level Dallas / Fort Worth TRACON
Thu 01:39:45 AM 33.2667 -96.7833 228° Southwest 260 299 6,900 -1,632 Descending Dallas / Fort Worth TRACON
Thu 01:40:39 AM 33.2167 -96.8333 220° Southwest 229 264 5,600 -1,429 Descending Dallas / Fort Worth TRACON
Thu 01:41:51 AM 33.1667 -96.9000 228° Southwest 211 243 3,900 -1,318 Descending Dallas / Fort Worth TRACON
Thu 01:42:51 AM 33.1333 -96.9333 220° Southwest 195 224 2,700 -900 Descending Dallas / Fort Worth TRACON
Thu 01:43:51 AM 33.0833 -96.9833 220° Southwest 196 226 2,100 -368 Descending Dallas / Fort Worth TRACON
Thu 01:44:45 AM 33.0500 -97.0167 220° Southwest 197 227 2,000 -111 Descending Dallas / Fort Worth TRACON

Login

Don't have an account? Register now (free) for customized features, flight alerts, and more!